createdAt,value
2023-01-23T00:03:40.158Z,4.29
2023-01-23T00:13:40.193Z,4.27
2023-01-23T00:23:40.170Z,4.26
2023-01-23T00:33:40.144Z,4.26
2023-01-23T00:43:40.239Z,4.27
2023-01-23T00:53:40.391Z,4.28
2023-01-23T01:03:41.784Z,4.28
2023-01-23T01:13:42.545Z,4.23
2023-01-23T01:23:42.219Z,4.13
2023-01-23T01:33:42.259Z,4.07
2023-01-23T01:43:42.295Z,4.07
2023-01-23T01:53:42.372Z,4.09
2023-01-23T02:03:42.261Z,4.15
2023-01-23T02:13:42.621Z,4.22
2023-01-23T02:23:44.602Z,4.24
2023-01-23T02:33:44.399Z,4.19
2023-01-23T02:43:45.252Z,4.13
2023-01-23T02:53:45.329Z,4.05
2023-01-23T03:03:45.410Z,3.84
2023-01-23T03:13:45.321Z,3.51
2023-01-23T03:23:47.195Z,3.18
2023-01-23T03:33:48.472Z,2.89
2023-01-23T03:43:48.659Z,2.70
2023-01-23T03:53:49.556Z,2.61
2023-01-23T04:03:49.951Z,2.60
2023-01-23T04:13:53.783Z,2.68
2023-01-23T04:23:54.466Z,2.80
2023-01-23T04:33:55.988Z,2.92
2023-01-23T04:43:57.449Z,3.03
2023-01-23T04:53:57.638Z,3.06
2023-01-23T05:03:57.679Z,2.98
2023-01-23T05:13:57.893Z,2.85
2023-01-23T05:23:58.619Z,2.70
2023-01-23T05:33:58.812Z,2.56
2023-01-23T05:44:03.328Z,2.43
2023-01-23T05:54:04.605Z,2.30
2023-01-23T06:04:06.456Z,2.20
2023-01-23T06:14:07.409Z,2.13
2023-01-23T06:24:07.617Z,2.10
2023-01-23T06:34:09.509Z,2.08
2023-01-23T06:44:09.797Z,2.08
2023-01-23T06:54:09.763Z,2.22
2023-01-23T07:04:10.881Z,2.55
2023-01-23T07:14:10.927Z,2.90
2023-01-23T07:24:10.536Z,3.20
2023-01-23T07:34:10.601Z,3.45
2023-01-23T07:44:10.577Z,3.66
2023-01-23T07:54:10.561Z,3.81
2023-01-23T08:04:10.739Z,3.96
2023-01-23T08:14:10.701Z,4.15
2023-01-23T08:24:10.722Z,4.36
2023-01-23T08:34:10.657Z,4.58
2023-01-23T08:44:10.629Z,4.80
2023-01-23T08:54:10.736Z,5.01
2023-01-23T09:04:10.712Z,5.22
2023-01-23T09:14:10.859Z,5.35
2023-01-23T09:24:10.801Z,5.45
2023-01-23T09:34:10.751Z,5.54
2023-01-23T09:44:10.784Z,5.65
2023-01-23T09:54:10.752Z,5.76
2023-01-23T10:04:10.768Z,5.84
2023-01-23T10:14:10.761Z,5.92
2023-01-23T10:24:10.758Z,5.97
2023-01-23T10:34:10.880Z,6.04
2023-01-23T10:44:10.801Z,6.21
2023-01-23T10:54:19.443Z,6.40
2023-01-23T11:04:14.855Z,6.55
2023-01-23T11:14:16.311Z,6.68
2023-01-23T11:24:17.701Z,6.89
2023-01-23T11:34:19.011Z,7.20
2023-01-23T11:44:19.349Z,7.48
2023-01-23T11:54:19.857Z,7.64
2023-01-23T12:04:19.914Z,7.67
2023-01-23T12:14:19.956Z,7.89
2023-01-23T12:24:19.916Z,8.26
2023-01-23T12:34:20.030Z,8.48
2023-01-23T12:44:19.935Z,8.44
2023-01-23T12:54:19.962Z,8.18
2023-01-23T13:04:20.106Z,7.82
2023-01-23T13:14:19.943Z,7.51
2023-01-23T13:24:21.915Z,7.32
2023-01-23T13:34:22.316Z,7.21
2023-01-23T13:44:27.076Z,7.12
2023-01-23T13:54:43.422Z,7.06
2023-01-23T14:05:02.671Z,6.97
2023-01-23T14:15:21.430Z,6.91
2023-01-23T14:25:21.779Z,6.86
2023-01-23T14:35:22.452Z,6.65
2023-01-23T14:45:23.312Z,6.40
2023-01-23T14:55:29.747Z,6.16
2023-01-23T15:05:26.471Z,5.92
2023-01-23T15:15:27.280Z,5.70
2023-01-23T15:25:27.105Z,5.50
2023-01-23T15:35:27.172Z,5.34
2023-01-23T15:45:28.891Z,5.24
2023-01-23T15:55:29.305Z,5.16
2023-01-23T16:05:29.276Z,5.08
2023-01-23T16:15:29.521Z,4.99
2023-01-23T16:25:42.978Z,4.92
2023-01-23T16:35:32.693Z,4.86
2023-01-23T16:45:34.653Z,4.81
2023-01-23T16:55:35.210Z,4.76
2023-01-23T17:05:35.405Z,4.74
2023-01-23T17:15:35.364Z,4.74
2023-01-23T17:25:36.678Z,4.76
2023-01-23T17:35:37.326Z,4.78
2023-01-23T17:45:37.297Z,4.79
2023-01-23T17:55:37.991Z,4.79
2023-01-23T18:05:38.364Z,4.78
2023-01-23T18:15:38.406Z,4.79
2023-01-23T18:25:38.359Z,4.79
2023-01-23T18:35:38.505Z,4.79
2023-01-23T18:45:38.447Z,4.78
2023-01-23T18:55:38.392Z,4.74
2023-01-23T19:05:38.501Z,4.72
2023-01-23T19:15:38.460Z,4.74
2023-01-23T19:25:38.486Z,4.75
2023-01-23T19:35:38.603Z,4.75
2023-01-23T19:45:38.641Z,4.74
2023-01-23T19:55:38.594Z,4.73
2023-01-23T20:05:38.420Z,4.73
2023-01-23T20:15:38.552Z,4.74
2023-01-23T20:25:38.525Z,4.74
2023-01-23T20:35:38.999Z,4.76
2023-01-23T20:45:39.587Z,4.78
2023-01-23T20:55:39.521Z,4.82
2023-01-23T21:05:39.554Z,4.83
2023-01-23T21:15:39.690Z,4.83
2023-01-23T21:25:39.512Z,4.82
2023-01-23T21:35:40.035Z,4.83
2023-01-23T21:45:40.673Z,4.82
2023-01-23T21:55:40.594Z,4.82
2023-01-23T22:16:49.010Z,4.86
2023-01-23T22:26:46.574Z,4.91
2023-01-23T22:36:46.624Z,4.92
2023-01-23T22:46:46.784Z,4.91
2023-01-23T22:56:46.704Z,4.90
2023-01-23T23:06:46.644Z,4.88
2023-01-23T23:16:46.657Z,4.86
2023-01-23T23:26:47.620Z,4.84
2023-01-23T23:36:47.779Z,4.84
2023-01-23T23:46:47.740Z,4.83
2023-01-23T23:56:48.259Z,4.81
